Time;durP1;ratioP1;P1;durP2;ratioP2;P2;SDS_P1;SDS_P2;PMS_P1;PMS_P2;Temp;Humidity;BMP_temperature;BMP_pressure;BME280_temperature;BME280_humidity;BME280_pressure;Samples;Min_cycle;Max_cycle;Signal;HPM_P1;HPM_P2
2022/03/16 00:01:36;;;;;;;38.92;22.02;;;;;;;6.74;100.00;99470.94;4977406;28;20029;-70
2022/03/16 00:04:02;;;;;;;38.78;22.70;;;;;;;6.86;100.00;99493.00;4994425;28;20155;-69
2022/03/16 00:06:27;;;;;;;39.92;22.80;;;;;;;6.92;100.00;99501.28;4994709;28;20077;-70
2022/03/16 00:08:52;;;;;;;44.22;23.08;;;;;;;6.85;100.00;99496.72;4973558;28;20023;-69
2022/03/16 00:11:19;;;;;;;41.65;23.50;;;;;;;6.76;100.00;99485.91;4984401;28;20144;-69
2022/03/16 00:13:44;;;;;;;42.83;23.75;;;;;;;6.92;100.00;99505.81;4993260;28;20098;-69
2022/03/16 00:16:09;;;;;;;44.63;23.27;;;;;;;6.91;100.00;99509.50;5002028;28;20034;-69
2022/03/16 00:18:35;;;;;;;43.65;24.35;;;;;;;6.85;100.00;99507.47;4981965;28;20058;-69
2022/03/16 00:21:00;;;;;;;42.70;23.90;;;;;;;6.88;100.00;99507.97;4982632;28;20120;-69
2022/03/16 00:23:26;;;;;;;44.60;24.15;;;;;;;6.89;100.00;99503.44;4991409;28;20026;-69
2022/03/16 00:25:52;;;;;;;46.28;23.58;;;;;;;6.91;100.00;99506.81;4962803;28;20110;-70
2022/03/16 00:28:17;;;;;;;41.60;23.50;;;;;;;6.91;100.00;99498.72;4978901;28;20581;-70
2022/03/16 00:30:43;;;;;;;45.13;25.25;;;;;;;6.93;100.00;99502.13;4976046;28;20033;-70
2022/03/16 00:33:09;;;;;;;42.40;23.80;;;;;;;6.83;100.00;99490.63;4975695;28;20030;-70
2022/03/16 00:35:34;;;;;;;41.25;22.85;;;;;;;6.82;100.00;99486.28;4990292;28;20477;-70
2022/03/16 00:37:59;;;;;;;43.67;22.42;;;;;;;6.67;100.00;99473.44;4975305;28;20441;-70
2022/03/16 00:40:25;;;;;;;41.20;21.58;;;;;;;6.93;100.00;99494.03;4992922;28;20063;-70
2022/03/16 00:42:50;;;;;;;41.38;23.33;;;;;;;7.05;100.00;99508.03;4993843;28;20504;-70
2022/03/16 00:45:16;;;;;;;42.92;22.70;;;;;;;7.04;100.00;99512.56;4991804;28;20398;-70
2022/03/16 00:47:41;;;;;;;44.95;24.30;;;;;;;6.85;100.00;99489.47;4971012;28;20022;-70
2022/03/16 00:50:06;;;;;;;41.05;23.08;;;;;;;6.98;100.00;99495.22;4974911;28;20022;-70
2022/03/16 00:52:32;;;;;;;41.67;23.60;;;;;;;6.99;100.00;99506.84;4993800;28;20041;-70
2022/03/16 00:54:57;;;;;;;46.15;24.13;;;;;;;6.95;100.00;99503.63;4993297;28;20038;-70
2022/03/16 00:57:22;;;;;;;42.35;24.20;;;;;;;6.89;100.00;99492.66;4991147;28;20077;-69
2022/03/16 00:59:48;;;;;;;42.20;22.77;;;;;;;6.91;100.00;99493.34;4966678;28;20034;-69
2022/03/16 01:02:13;;;;;;;48.45;24.40;;;;;;;6.91;100.00;99496.03;4990396;28;20049;-70
2022/03/16 01:04:38;;;;;;;48.70;25.30;;;;;;;6.96;100.00;99507.16;4990109;28;20030;-70
2022/03/16 01:07:05;;;;;;;46.10;24.63;;;;;;;6.91;100.00;99486.13;4973779;28;20031;-70
2022/03/16 01:09:30;;;;;;;43.45;23.73;;;;;;;6.99;100.00;99501.44;4972301;28;20031;-70
2022/03/16 01:11:55;;;;;;;44.17;22.45;;;;;;;6.87;100.00;99478.56;4974082;28;20023;-70
2022/03/16 01:14:20;;;;;;;44.78;23.83;;;;;;;6.89;100.00;99488.16;4982816;28;20105;-70
2022/03/16 01:16:46;;;;;;;42.30;22.65;;;;;;;6.94;100.00;99498.41;4971894;28;20512;-70
2022/03/16 01:19:14;;;;;;;41.58;23.15;;;;;;;6.98;100.00;99514.06;4974499;28;20030;-69
2022/03/16 01:21:41;;;;;;;45.33;24.50;;;;;;;6.83;100.00;99494.16;4973679;28;20397;-70
2022/03/16 01:24:07;;;;;;;42.75;23.10;;;;;;;6.94;100.00;99511.84;4987789;28;20041;-69
2022/03/16 01:26:33;;;;;;;43.65;23.23;;;;;;;6.89;100.00;99512.38;4987456;28;20030;-70
2022/03/16 01:28:58;;;;;;;48.60;24.58;;;;;;;6.91;100.00;99513.03;4984906;28;20030;-70
2022/03/16 01:31:24;;;;;;;43.38;23.70;;;;;;;6.91;100.00;99509.50;4983708;28;20117;-70
2022/03/16 01:33:49;;;;;;;45.78;23.98;;;;;;;6.63;100.00;99471.22;4992847;28;20490;-71
2022/03/16 01:36:15;;;;;;;51.30;25.88;;;;;;;6.65;100.00;99467.38;4987516;28;20053;-71
2022/03/16 01:38:40;;;;;;;50.72;25.63;;;;;;;6.71;100.00;99465.91;4973789;28;20034;-70
2022/03/16 01:41:06;;;;;;;47.63;25.63;;;;;;;6.70;100.00;99472.25;4975121;28;20011;-71
2022/03/16 01:43:31;;;;;;;44.35;24.45;;;;;;;6.81;100.00;99485.41;4992916;28;20027;-71
2022/03/16 01:45:56;;;;;;;48.50;25.48;;;;;;;6.80;100.00;99481.88;4974679;28;20033;-70
2022/03/16 01:48:22;;;;;;;51.47;24.90;;;;;;;6.89;100.00;99495.34;4990330;28;20030;-71
2022/03/16 01:50:48;;;;;;;42.33;23.13;;;;;;;6.75;100.00;99484.22;4992642;28;20436;-70
2022/03/16 01:53:14;;;;;;;46.42;24.67;;;;;;;6.67;100.00;99461.84;4984015;28;20027;-71
2022/03/16 01:55:40;;;;;;;46.28;23.85;;;;;;;6.92;100.00;99497.75;4992295;28;20080;-71
2022/03/16 01:58:05;;;;;;;48.53;23.55;;;;;;;6.79;100.00;99488.28;4992048;28;20072;-70
2022/03/16 02:00:31;;;;;;;46.15;24.25;;;;;;;6.94;100.00;99507.34;4988153;28;20109;-70
2022/03/16 02:02:56;;;;;;;47.55;23.85;;;;;;;6.81;100.00;99490.78;4990135;28;20030;-71
2022/03/16 02:05:22;;;;;;;45.15;24.35;;;;;;;6.87;100.00;99500.09;4992184;28;20037;-70
2022/03/16 02:07:47;;;;;;;46.38;25.17;;;;;;;6.78;100.00;99488.44;4975170;28;20399;-70
2022/03/16 02:10:14;;;;;;;46.95;23.05;;;;;;;6.76;100.00;99482.41;4991739;28;20045;-71
2022/03/16 02:12:47;;;;;;;43.25;24.27;;;;;;;6.74;100.00;99487.91;4991152;28;20516;-71
2022/03/16 02:15:12;;;;;;;42.83;23.10;;;;;;;6.72;100.00;99489.09;4991644;28;20073;-71
2022/03/16 02:17:38;;;;;;;51.78;24.92;;;;;;;6.42;100.00;99436.69;4992841;28;20034;-70
2022/03/16 02:20:05;;;;;;;52.72;25.88;;;;;;;6.72;100.00;99486.41;4991905;28;20034;-71
2022/03/16 02:22:34;;;;;;;46.40;25.35;;;;;;;6.67;100.00;99486.03;4975718;28;20502;-71
2022/03/16 02:25:00;;;;;;;50.08;24.33;;;;;;;6.76;100.00;99506.59;4989660;28;20030;-70
2022/03/16 02:27:25;;;;;;;51.28;24.98;;;;;;;6.68;100.00;99485.88;4991882;28;20034;-70
2022/03/16 02:29:51;;;;;;;49.22;26.38;;;;;;;6.73;100.00;99499.69;4992089;28;20032;-71
2022/03/16 02:32:16;;;;;;;46.00;24.75;;;;;;;6.53;100.00;99460.63;4975218;28;20037;-71
2022/03/16 02:34:41;;;;;;;51.10;25.17;;;;;;;6.79;100.00;99507.09;4992168;28;20026;-71
2022/03/16 02:37:07;;;;;;;46.83;23.75;;;;;;;6.80;100.00;99505.25;4983591;28;20831;-70
2022/03/16 02:39:32;;;;;;;49.33;24.55;;;;;;;6.66;100.00;99471.75;5000415;28;20101;-70
2022/03/16 02:41:57;;;;;;;46.78;23.92;;;;;;;6.79;100.00;99503.59;4974869;28;20023;-70
2022/03/16 02:44:22;;;;;;;48.08;24.90;;;;;;;6.85;100.00;99513.69;4992362;28;20105;-70
2022/03/16 02:46:48;;;;;;;43.38;23.55;;;;;;;6.70;100.00;99481.16;4989403;28;20054;-69
2022/03/16 02:49:13;;;;;;;42.22;22.75;;;;;;;6.66;100.00;99482.50;4991537;28;20033;-70
2022/03/16 02:51:39;;;;;;;44.20;23.90;;;;;;;6.83;100.00;99498.72;4991355;28;20061;-71
2022/03/16 02:54:04;;;;;;;44.40;22.85;;;;;;;6.89;100.00;99516.88;4994005;28;20401;-70
2022/03/16 02:56:30;;;;;;;43.35;24.55;;;;;;;6.66;100.00;99473.59;4993578;28;20059;-72
2022/03/16 02:58:56;;;;;;;45.65;24.40;;;;;;;6.88;100.00;99515.19;4991196;28;20102;-70
2022/03/16 03:01:21;;;;;;;46.17;23.58;;;;;;;6.69;100.00;99479.50;4975863;28;20030;-70
2022/03/16 03:03:47;;;;;;;43.78;23.80;;;;;;;6.78;100.00;99497.34;4998953;28;20042;-69
2022/03/16 03:06:12;;;;;;;43.47;23.63;;;;;;;6.67;100.00;99476.13;4995705;28;20057;-70
2022/03/16 03:08:37;;;;;;;43.35;23.38;;;;;;;6.67;100.00;99481.50;4995133;28;20034;-70
2022/03/16 03:11:02;;;;;;;45.05;24.63;;;;;;;6.64;100.00;99481.81;4995402;28;20026;-70
2022/03/16 03:13:28;;;;;;;43.45;23.98;;;;;;;6.78;100.00;99510.78;4993436;28;20026;-70
2022/03/16 03:15:53;;;;;;;42.63;22.60;;;;;;;6.77;100.00;99506.41;4971769;28;20045;-70
2022/03/16 03:18:18;;;;;;;47.67;24.58;;;;;;;6.79;100.00;99515.19;5021701;22;20137;-74
2022/03/16 03:20:43;;;;;;;45.55;25.00;;;;;;;6.79;100.00;99515.19;4994438;28;20038;-74
2022/03/16 03:23:09;;;;;;;45.38;24.48;;;;;;;6.77;100.00;99513.66;4992563;28;20108;-74
2022/03/16 03:25:34;;;;;;;49.67;24.92;;;;;;;6.79;100.00;99517.88;4994926;28;20026;-74
2022/03/16 03:27:59;;;;;;;43.60;24.20;;;;;;;6.77;100.00;99517.19;4993400;28;20018;-75
2022/03/16 03:30:25;;;;;;;46.72;25.27;;;;;;;6.80;100.00;99513.31;4993260;28;20037;-74
2022/03/16 03:32:50;;;;;;;48.25;24.67;;;;;;;6.77;100.00;99511.78;4992399;28;20496;-74
2022/03/16 03:35:15;;;;;;;42.10;23.98;;;;;;;6.73;100.00;99520.34;4994771;28;20049;-74
2022/03/16 03:37:41;;;;;;;44.47;23.95;;;;;;;6.67;100.00;99516.44;5008073;28;20089;-74
2022/03/16 03:40:07;;;;;;;47.22;24.20;;;;;;;6.73;100.00;99523.91;4984253;28;20470;-75
2022/03/16 03:42:32;;;;;;;46.40;24.45;;;;;;;6.79;100.00;99517.88;4988801;28;20026;-73
2022/03/16 03:44:58;;;;;;;41.45;23.98;;;;;;;6.79;100.00;99522.41;4993291;28;20042;-73
2022/03/16 03:47:23;;;;;;;44.30;23.52;;;;;;;6.79;100.00;99520.56;4992233;28;20188;-73
2022/03/16 03:49:49;;;;;;;47.08;24.08;;;;;;;6.79;100.00;99527.78;4988912;28;20022;-73
2022/03/16 03:52:14;;;;;;;40.22;22.88;;;;;;;6.88;100.00;99536.72;4983733;28;20508;-73
2022/03/16 03:54:40;;;;;;;44.35;23.98;;;;;;;6.84;100.00;99529.97;4981308;28;20033;-73
2022/03/16 03:57:06;;;;;;;44.58;24.67;;;;;;;6.79;100.00;99530.47;4992633;28;20034;-73
2022/03/16 03:59:31;;;;;;;45.67;24.27;;;;;;;6.74;100.00;99533.63;4991755;28;20500;-74
2022/03/16 04:01:57;;;;;;;47.67;24.35;;;;;;;6.68;100.00;99520.84;4982996;28;20050;-74
2022/03/16 04:04:22;;;;;;;44.67;23.85;;;;;;;6.66;100.00;99520.16;4992967;28;20033;-74
2022/03/16 04:06:48;;;;;;;42.72;23.33;;;;;;;6.71;100.00;99531.28;4991740;28;20026;-74
2022/03/16 04:09:13;;;;;;;40.45;23.25;;;;;;;6.77;100.00;99537.84;4992199;28;20027;-75
2022/03/16 04:11:39;;;;;;;46.08;25.15;;;;;;;6.72;100.00;99545.56;4995525;28;20125;-74
2022/03/16 04:14:05;;;;;;;43.95;23.67;;;;;;;6.65;100.00;99531.91;4998066;28;20033;-74
2022/03/16 04:16:30;;;;;;;43.22;23.00;;;;;;;6.71;100.00;99549.25;4993997;28;20109;-73
2022/03/16 04:18:56;;;;;;;43.85;24.58;;;;;;;6.72;100.00;99551.78;4993637;28;20037;-73
2022/03/16 04:21:21;;;;;;;43.00;23.00;;;;;;;6.74;100.00;99547.09;4981129;28;20034;-72
2022/03/16 04:23:47;;;;;;;39.55;22.38;;;;;;;6.68;100.00;99520.84;4983532;28;20034;-72
2022/03/16 04:26:12;;;;;;;38.58;22.63;;;;;;;6.79;100.00;99544.75;4985130;28;20069;-74
2022/03/16 04:28:38;;;;;;;40.67;21.90;;;;;;;6.77;100.00;99554.81;4981668;28;20502;-74
2022/03/16 04:31:03;;;;;;;38.63;22.13;;;;;;;6.76;100.00;99555.84;4986751;28;20030;-74
2022/03/16 04:33:29;;;;;;;37.72;22.13;;;;;;;6.78;100.00;99552.97;4992540;28;20030;-74
2022/03/16 04:35:55;;;;;;;41.92;22.17;;;;;;;6.78;100.00;99561.03;4993450;28;20030;-73
2022/03/16 04:38:20;;;;;;;41.20;21.35;;;;;;;6.70;100.00;99552.94;4988029;28;20022;-73
2022/03/16 04:40:46;;;;;;;41.38;21.77;;;;;;;6.67;100.00;99546.03;4985516;28;20027;-73
2022/03/16 04:43:12;;;;;;;37.30;20.98;;;;;;;6.76;100.00;99563.06;4987460;28;20113;-72
2022/03/16 04:45:39;;;;;;;40.67;21.77;;;;;;;6.65;100.00;99539.97;4984914;28;20040;-76
2022/03/16 04:48:08;;;;;;;37.78;20.48;;;;;;;6.60;100.00;99547.66;4983503;28;20062;-74
2022/03/16 04:50:38;;;;;;;40.80;20.75;;;;;;;6.74;100.00;99562.38;4989715;28;20026;-73
2022/03/16 04:53:03;;;;;;;;;;;;;;;6.71;100.00;99566.22;4987133;28;20065;-74
2022/03/16 04:55:29;;;;;;;35.40;18.85;;;;;;;6.71;100.00;99568.09;4990890;28;19945;-73
2022/03/16 04:57:54;;;;;;;35.50;19.85;;;;;;;6.63;100.00;99551.88;4990020;28;20482;-74
2022/03/16 05:00:20;;;;;;;37.17;20.08;;;;;;;6.68;100.00;99552.25;4992883;28;20430;-75
2022/03/16 05:02:46;;;;;;;39.15;20.58;;;;;;;6.66;100.00;99563.19;4986046;28;20033;-77
2022/03/16 05:05:11;;;;;;;40.08;20.92;;;;;;;6.48;100.00;99548.97;4993042;28;20030;-77
2022/03/16 05:07:37;;;;;;;44.00;22.40;;;;;;;6.58;100.00;99555.91;4990840;28;20035;-73
2022/03/16 05:10:05;;;;;;;38.83;20.13;;;;;;;6.54;100.00;99557.22;4991673;28;20050;-76
2022/03/16 05:12:41;;;;;;;34.05;19.00;;;;;;;6.55;100.00;99550.84;5001089;28;20132;-75
2022/03/16 05:15:08;;;;;;;37.60;20.27;;;;;;;6.51;100.00;99538.72;4974658;28;20022;-74
2022/03/16 05:17:35;;;;;;;37.13;19.90;;;;;;;6.75;100.00;99562.19;4977766;28;20085;-77
2022/03/16 05:20:01;;;;;;;37.00;19.85;;;;;;;6.69;100.00;99552.09;5004249;28;20031;-75
2022/03/16 05:22:27;;;;;;;34.42;18.83;;;;;;;6.70;100.00;99553.78;4992789;28;20109;-78
2022/03/16 05:24:52;;;;;;;36.78;19.60;;;;;;;6.77;100.00;99560.19;4996899;28;20128;-75
2022/03/16 05:27:20;;;;;;;35.50;20.00;;;;;;;6.59;100.00;99544.13;4994083;28;20034;-76
2022/03/16 05:29:49;;;;;;;37.17;19.80;;;;;;;6.72;100.00;99561.69;4990354;28;20389;-75
2022/03/16 05:32:14;;;;;;;35.53;19.65;;;;;;;6.51;100.00;99545.94;4993417;28;20033;-76
2022/03/16 05:34:40;;;;;;;36.35;19.08;;;;;;;6.60;100.00;99553.03;4988462;28;20026;-76
2022/03/16 05:37:06;;;;;;;33.22;19.73;;;;;;;6.62;100.00;99577.94;4989882;28;20037;-75
2022/03/16 05:39:32;;;;;;;35.90;20.45;;;;;;;6.53;100.00;99585.13;4990185;28;20022;-75
2022/03/16 05:41:57;;;;;;;38.50;20.73;;;;;;;6.61;100.00;99581.63;4985519;28;20030;-75
2022/03/16 05:44:23;;;;;;;33.05;19.50;;;;;;;6.52;100.00;99571.81;4993895;28;20030;-75
2022/03/16 05:46:48;;;;;;;33.03;19.13;;;;;;;6.63;100.00;99576.94;4992737;28;20030;-72
2022/03/16 05:49:13;;;;;;;35.42;20.08;;;;;;;6.49;100.00;99561.38;4983065;28;20022;-75
2022/03/16 05:51:39;;;;;;;36.50;20.55;;;;;;;6.52;100.00;99567.31;4992499;28;20529;-73
2022/03/16 05:54:04;;;;;;;35.58;19.42;;;;;;;6.61;100.00;99570.03;4991138;28;20462;-74
2022/03/16 05:56:31;;;;;;;37.95;20.88;;;;;;;6.46;100.00;99550.97;4985499;28;20022;-74
2022/03/16 05:58:57;;;;;;;35.75;18.83;;;;;;;6.44;100.00;99567.22;4987681;28;20018;-74
2022/03/16 06:01:22;;;;;;;32.63;18.20;;;;;;;6.44;100.00;99577.16;4983367;28;20042;-74
2022/03/16 06:03:48;;;;;;;36.08;18.88;;;;;;;6.43;100.00;99568.25;4986712;28;20402;-71
2022/03/16 06:06:15;;;;;;;34.80;18.48;;;;;;;6.32;100.00;99563.13;4982230;28;20053;-73
2022/03/16 06:08:41;;;;;;;29.13;17.15;;;;;;;6.44;100.00;99577.16;4973011;28;20030;-74
2022/03/16 06:11:06;;;;;;;34.00;18.85;;;;;;;6.37;100.00;99579.63;4975933;28;20030;-75
2022/03/16 06:13:32;;;;;;;29.83;17.10;;;;;;;6.47;100.00;99595.63;4982314;28;20461;-77
2022/03/16 06:15:57;;;;;;;28.58;16.77;;;;;;;6.49;100.00;99578.34;4956369;28;20133;-72
2022/03/16 06:18:22;;;;;;;29.73;16.90;;;;;;;6.46;100.00;99567.09;4992807;28;20050;-72
2022/03/16 06:20:48;;;;;;;30.90;16.58;;;;;;;6.65;100.00;99587.53;4991537;28;20033;-72
2022/03/16 06:23:13;;;;;;;26.55;16.45;;;;;;;6.60;100.00;99577.25;4984314;28;20086;-72
2022/03/16 06:25:38;;;;;;;28.33;16.65;;;;;;;6.75;100.00;99586.41;4993680;28;20022;-70
2022/03/16 06:28:04;;;;;;;32.45;16.33;;;;;;;6.68;100.00;99598.81;4991430;28;20022;-75
2022/03/16 06:30:29;;;;;;;31.17;16.55;;;;;;;6.65;100.00;99607.19;4995621;28;20040;-68
2022/03/16 06:32:55;;;;;;;28.17;16.65;;;;;;;6.74;100.00;99603.56;4989768;28;20147;-70
2022/03/16 06:35:20;;;;;;;28.20;16.60;;;;;;;6.83;100.00;99615.19;4994939;28;20029;-74
2022/03/16 06:37:46;;;;;;;28.23;16.08;;;;;;;6.84;100.00;99611.53;4990403;28;20057;-73
2022/03/16 06:40:13;;;;;;;27.25;15.52;;;;;;;6.94;100.00;99604.19;4988381;28;20022;-73
2022/03/16 06:42:45;;;;;;;28.55;16.42;;;;;;;6.95;100.00;99597.78;4995364;28;20034;-75
2022/03/16 06:45:11;;;;;;;25.42;15.50;;;;;;;7.05;99.52;99586.91;4993686;28;20071;-74
2022/03/16 06:47:38;;;;;;;27.67;15.10;;;;;;;7.10;99.05;99602.56;4996965;28;20042;-74
2022/03/16 06:50:05;;;;;;;27.63;16.38;;;;;;;7.08;99.71;99610.81;4985517;28;20469;-72
2022/03/16 06:52:30;;;;;;;25.60;15.40;;;;;;;7.03;98.04;99595.13;4989706;28;20038;-77
2022/03/16 06:54:56;;;;;;;24.38;14.40;;;;;;;7.14;98.47;99617.38;4988548;28;20410;-74
2022/03/16 06:57:21;;;;;;;26.02;15.35;;;;;;;7.21;97.55;99631.88;4994421;28;20046;-75
2022/03/16 06:59:46;;;;;;;26.13;15.13;;;;;;;7.22;98.04;99615.56;4996472;28;20486;-74
2022/03/16 07:02:11;;;;;;;25.48;15.00;;;;;;;7.24;96.97;99615.41;4996108;28;20083;-76
2022/03/16 07:04:37;;;;;;;24.77;15.05;;;;;;;7.16;97.04;99620.75;4994632;28;20030;-75
2022/03/16 07:07:02;;;;;;;28.35;15.60;;;;;;;7.31;98.70;99623.66;4992001;28;20033;-76
2022/03/16 07:09:28;;;;;;;24.10;14.13;;;;;;;7.30;95.27;99625.53;4992388;28;20029;-75
2022/03/16 07:11:53;;;;;;;27.20;15.90;;;;;;;7.27;95.32;99623.16;4996295;28;20026;-73
2022/03/16 07:14:31;;;;;;;27.90;16.15;;;;;;;7.44;94.77;99627.59;4996792;28;20121;-73
2022/03/16 07:16:57;;;;;;;25.33;15.40;;;;;;;7.57;94.35;99637.91;4987891;28;20125;-72
2022/03/16 07:19:22;;;;;;;24.30;15.23;;;;;;;7.29;96.27;99588.03;4991030;28;20026;-75
2022/03/16 07:21:48;;;;;;;26.55;15.38;;;;;;;7.52;94.22;99634.00;4988290;28;20022;-75
2022/03/16 07:24:13;;;;;;;23.50;14.88;;;;;;;7.62;93.39;99629.31;4987554;28;20019;-71
2022/03/16 07:26:39;;;;;;;25.58;15.48;;;;;;;7.34;94.28;99621.50;4987712;28;20173;-72
2022/03/16 07:29:05;;;;;;;25.65;15.70;;;;;;;7.42;93.30;99626.91;5007936;28;20466;-73
2022/03/16 07:31:30;;;;;;;25.00;14.23;;;;;;;7.54;93.69;99624.75;4989617;28;20025;-76
2022/03/16 07:33:56;;;;;;;23.90;14.90;;;;;;;7.71;94.15;99635.59;4989983;28;20026;-75
2022/03/16 07:36:21;;;;;;;24.65;15.00;;;;;;;7.82;93.64;99629.91;4988808;28;20030;-74
2022/03/16 07:38:46;;;;;;;23.95;15.20;;;;;;;8.13;92.80;99654.38;4987294;28;20058;-75
2022/03/16 07:41:11;;;;;;;22.63;14.80;;;;;;;8.10;92.53;99644.75;4991413;28;20037;-74
2022/03/16 07:43:37;;;;;;;23.15;14.57;;;;;;;8.22;90.41;99636.34;4989424;28;20072;-74
2022/03/16 07:46:03;;;;;;;26.65;16.13;;;;;;;8.62;90.37;99653.53;4990322;28;20030;-72
2022/03/16 07:48:28;;;;;;;24.30;14.70;;;;;;;8.44;89.22;99659.97;4986209;28;20493;-72
2022/03/16 07:50:53;;;;;;;25.35;14.40;;;;;;;8.50;89.56;99666.56;4992427;28;20030;-72
2022/03/16 07:53:19;;;;;;;28.23;15.52;;;;;;;8.51;89.01;99652.03;4989814;28;20026;-71
2022/03/16 07:55:48;;;;;;;23.73;14.88;;;;;;;8.53;89.64;99653.56;4993569;28;20030;-72
2022/03/16 07:58:13;;;;;;;22.40;13.93;;;;;;;8.51;89.63;99655.59;4985161;28;20440;-71
2022/03/16 08:00:38;;;;;;;22.75;14.90;;;;;;;8.69;89.14;99651.88;4981012;28;20121;-72
2022/03/16 08:03:04;;;;;;;22.33;14.52;;;;;;;8.78;87.42;99656.25;4982088;28;20026;-71
2022/03/16 08:05:30;;;;;;;21.75;14.43;;;;;;;8.69;89.25;99650.00;4981984;28;20065;-71
2022/03/16 08:07:55;;;;;;;41.42;21.23;;;;;;;8.80;88.93;99640.72;4979571;28;20034;-71
2022/03/16 08:10:21;;;;;;;23.30;13.73;;;;;;;9.04;84.55;99661.44;4979956;28;20022;-72
2022/03/16 08:12:46;;;;;;;24.52;15.57;;;;;;;8.88;88.38;99653.34;4993671;28;20489;-71
2022/03/16 08:15:12;;;;;;;22.60;14.43;;;;;;;9.13;87.55;99659.53;4981972;28;20164;-71
2022/03/16 08:17:37;;;;;;;21.50;13.65;;;;;;;9.09;88.02;99639.28;4981318;28;20034;-74
2022/03/16 08:20:03;;;;;;;20.15;13.18;;;;;;;9.18;87.95;99657.16;4988513;28;20486;-76
2022/03/16 08:22:32;;;;;;;23.92;14.60;;;;;;;9.09;85.59;99650.97;4987016;28;20034;-74
2022/03/16 08:25:00;;;;;;;21.70;13.80;;;;;;;9.46;87.20;99651.31;4984638;28;22496;-74
2022/03/16 08:27:26;;;;;;;21.73;14.10;;;;;;;9.49;85.40;99651.00;4983858;28;20026;-73
2022/03/16 08:29:52;;;;;;;19.83;13.38;;;;;;;9.59;86.16;99667.84;4986158;28;20034;-75
2022/03/16 08:32:18;;;;;;;21.50;13.95;;;;;;;9.61;85.07;99661.19;4994076;28;20545;-74
2022/03/16 08:34:44;;;;;;;22.30;13.88;;;;;;;9.57;85.76;99653.66;4983038;28;20489;-76
2022/03/16 08:37:10;;;;;;;21.63;13.60;;;;;;;9.53;85.41;99652.31;4995618;28;20030;-74
2022/03/16 08:39:36;;;;;;;20.50;13.63;;;;;;;9.66;85.73;99666.09;4988369;28;20073;-74
2022/03/16 08:42:02;;;;;;;21.83;13.68;;;;;;;9.42;85.33;99640.88;4988444;28;20038;-74
2022/03/16 08:44:27;;;;;;;21.30;13.90;;;;;;;9.82;84.31;99649.81;4984364;28;20030;-73
2022/03/16 08:46:52;;;;;;;21.52;13.05;;;;;;;9.88;84.47;99650.97;4978903;28;20022;-74
2022/03/16 08:49:18;;;;;;;21.95;13.73;;;;;;;10.01;84.14;99662.03;4995539;28;20022;-73
2022/03/16 08:51:44;;;;;;;20.50;13.20;;;;;;;10.16;83.82;99642.31;4979393;28;22434;-74
2022/03/16 08:54:09;;;;;;;21.80;13.77;;;;;;;10.39;81.52;99655.88;4985262;28;20631;-74
2022/03/16 08:56:35;;;;;;;19.88;13.35;;;;;;;10.30;81.55;99647.81;4989607;28;20053;-72
2022/03/16 08:59:01;;;;;;;19.50;13.30;;;;;;;10.43;79.96;99649.91;4992946;28;20030;-75
2022/03/16 09:01:26;;;;;;;16.88;12.57;;;;;;;10.41;82.12;99643.84;4987744;28;20117;-71
2022/03/16 09:03:53;;;;;;;19.83;13.48;;;;;;;10.46;81.14;99654.13;4987910;28;20114;-74
2022/03/16 09:06:19;;;;;;;19.75;13.05;;;;;;;10.48;79.23;99638.56;4989634;28;20027;-75
2022/03/16 09:08:44;;;;;;;20.08;13.73;;;;;;;10.40;78.96;99627.78;4988473;28;20081;-75
2022/03/16 09:11:09;;;;;;;17.80;12.32;;;;;;;10.65;80.16;99640.06;4987660;28;20030;-75
2022/03/16 09:13:35;;;;;;;19.55;12.57;;;;;;;10.95;77.99;99623.88;4986890;28;20036;-74
2022/03/16 09:16:01;;;;;;;18.08;12.10;;;;;;;11.23;78.34;99636.78;4981297;28;20359;-74
2022/03/16 09:18:27;;;;;;;18.27;12.82;;;;;;;11.02;78.40;99613.97;5028296;23;20055;-71
2022/03/16 09:20:53;;;;;;;18.50;12.82;;;;;;;11.09;78.24;99606.81;4978743;28;20030;-71
2022/03/16 09:23:18;;;;;;;17.45;12.63;;;;;;;11.15;76.59;99607.91;4978821;28;20032;-77
2022/03/16 09:25:44;;;;;;;19.00;12.57;;;;;;;11.35;77.68;99610.91;4970657;28;20082;-71
2022/03/16 09:28:09;;;;;;;18.58;12.73;;;;;;;11.89;74.23;99621.38;4962076;28;20474;-71
2022/03/16 09:30:36;;;;;;;16.58;12.02;;;;;;;11.37;75.56;99614.25;4957018;28;20031;-73
2022/03/16 09:33:02;;;;;;;18.98;12.27;;;;;;;11.26;75.54;99630.97;4958162;28;20050;-75
2022/03/16 09:35:28;;;;;;;18.67;12.75;;;;;;;11.36;73.91;99601.75;4960777;28;20505;-75
2022/03/16 09:37:54;;;;;;;16.38;11.38;;;;;;;11.62;74.64;99604.78;4973995;28;20019;-75
2022/03/16 09:40:20;;;;;;;19.85;11.80;;;;;;;11.81;73.25;99618.75;4970161;28;20091;-75
2022/03/16 09:42:48;;;;;;;17.52;12.23;;;;;;;12.00;71.67;99626.31;4986657;28;20059;-75
2022/03/16 09:45:19;;;;;;;18.80;12.18;;;;;;;11.81;73.84;99616.03;4976098;28;20027;-72
2022/03/16 09:47:46;;;;;;;15.73;10.90;;;;;;;12.15;72.42;99590.97;4955140;28;20023;-73
2022/03/16 09:50:11;;;;;;;15.98;11.70;;;;;;;12.22;72.19;99593.75;4968831;28;20011;-73
2022/03/16 09:52:37;;;;;;;17.98;11.90;;;;;;;12.03;71.21;99623.19;4966490;28;20078;-75
2022/03/16 09:55:05;;;;;;;16.95;11.45;;;;;;;12.31;71.21;99605.31;4965420;28;20130;-72
2022/03/16 09:57:30;;;;;;;16.77;12.10;;;;;;;12.76;66.98;99617.59;4980146;28;20087;-71
2022/03/16 09:59:56;;;;;;;16.52;11.48;;;;;;;12.60;68.37;99605.16;4975320;28;20020;-72
2022/03/16 10:02:21;;;;;;;15.45;11.30;;;;;;;12.57;70.82;99619.09;4942297;28;20031;-69
2022/03/16 10:04:47;;;;;;;17.63;12.25;;;;;;;11.79;71.87;99624.38;4950072;28;20019;-69
2022/03/16 10:07:12;;;;;;;17.75;12.05;;;;;;;12.25;70.54;99612.34;4954463;28;20027;-70
2022/03/16 10:15:12;;;;;;;17.90;11.52;;;;;;;13.12;67.68;99609.25;4953545;28;20094;-72
2022/03/16 10:17:45;;;;;;;17.45;12.48;;;;;;;13.20;67.36;99599.25;4955620;28;20031;-71
2022/03/16 10:20:19;;;;;;;18.55;12.80;;;;;;;12.06;68.66;99592.97;4953300;28;20035;-70
2022/03/16 10:22:52;;;;;;;15.35;11.25;;;;;;;12.52;68.84;99571.88;4963415;28;20031;-71
2022/03/16 10:25:18;;;;;;;17.63;12.02;;;;;;;12.49;68.41;99573.94;4962498;28;20027;-68
2022/03/16 10:27:43;;;;;;;18.20;12.05;;;;;;;11.91;70.52;99570.50;4955444;28;20501;-75
2022/03/16 10:30:09;;;;;;;18.55;11.77;;;;;;;11.84;72.40;99591.25;4955654;28;20054;-75
2022/03/16 10:32:36;;;;;;;20.00;12.43;;;;;;;12.07;71.55;99594.63;4966526;28;20050;-74
2022/03/16 10:35:05;;;;;;;19.02;12.25;;;;;;;12.24;71.73;99599.84;4963376;28;20114;-71
2022/03/16 10:37:34;;;;;;;18.77;12.57;;;;;;;12.28;72.56;99593.78;4954026;28;20022;-72
2022/03/16 10:39:59;;;;;;;20.08;13.45;;;;;;;12.40;71.15;99585.16;4956268;28;20034;-71
2022/03/16 10:48:10;;;;;;;18.60;12.30;;;;;;;12.47;70.63;99586.03;4953896;28;20082;-65
2022/03/16 10:50:39;;;;;;;19.02;12.50;;;;;;;12.01;72.32;99583.75;4951823;28;20043;-65
2022/03/16 10:53:04;;;;;;;20.00;12.18;;;;;;;12.04;73.37;99584.19;4955719;28;20034;-67
2022/03/16 10:55:30;;;;;;;18.90;12.85;;;;;;;12.25;73.36;99574.38;4950999;28;20035;-65
2022/03/16 10:57:55;;;;;;;19.25;12.77;;;;;;;12.67;70.80;99573.44;4955188;28;20042;-66
2022/03/16 11:00:21;;;;;;;18.52;12.45;;;;;;;12.57;70.24;99539.53;4948376;28;20042;-67
2022/03/16 11:02:50;;;;;;;20.95;12.32;;;;;;;13.06;68.48;99565.75;4955966;28;20027;-66
2022/03/16 11:05:18;;;;;;;17.97;12.27;;;;;;;13.28;68.09;99570.09;4955915;28;20475;-67
2022/03/16 11:07:46;;;;;;;19.10;12.83;;;;;;;13.32;68.82;99568.63;4954013;28;20029;-66
2022/03/16 11:10:11;;;;;;;16.40;11.98;;;;;;;14.01;65.07;99555.84;4941644;28;20046;-67
2022/03/16 11:15:21;;;;;;;16.60;11.60;;;;;;;14.33;63.02;99566.97;4951488;28;20121;-68
2022/03/16 11:17:47;;;;;;;17.45;11.77;;;;;;;14.03;64.18;99537.44;4954836;28;20106;-68
2022/03/16 11:20:13;;;;;;;16.10;11.85;;;;;;;15.17;61.70;99558.09;4946657;28;20066;-70
2022/03/16 11:24:15;;;;;;;16.63;11.50;;;;;;;16.09;58.42;99547.78;4951748;28;20030;-73
2022/03/16 11:26:03;;;;;;;17.20;11.63;;;;;;;17.52;54.33;99543.22;4953546;28;20070;-72
2022/03/16 11:29:07;;;;;;;13.57;10.35;;;;;;;18.55;51.07;99542.09;4950120;28;20082;-73